KTHV/THV METAR and TAF weather

Enter ICAO airport designator
Station Type Date Time Source
KTHV METAR 2020/09/23 02:53 UTC NOAA

KTHV 230253Z AUTO 26004KT 10SM CLR 13/03 A2999 RMK AO2 SLP157 T01330033 55003


Station Type Date Time Source
KTHV Decoded METAR 2020/09/23 02:53 UTC NOAA

YORK AIRPORT, PA, United States (KTHV) 39-55N 076-53W 144M
Sep 22, 2020 - 10:53 PM EDT / 2020.09.23 0253 UTC
Wind: from the W (260 degrees) at 5 MPH (4 KT):0
Visibility: 10 mile(s):0
Sky conditions: clear
Temperature: 55.9 F (13.3 C)
Dew Point: 37.9 F (3.3 C)
Relative Humidity: 50%
Pressure (altimeter): 29.99 in. Hg (1015 hPa)
Pressure tendency: 0.01 inches (0.3 hPa) lower than three hours ago
ob: KTHV 230253Z AUTO 26004KT 10SM CLR 13/03 A2999 RMK AO2 SLP157 T01330033 55003
cycle: 3

Station Type Date Time Source
KTHV TAF UTC NOAA

Error!

Example: see airport list